Terminal Aerodrome Forecast
Issued by NWS

Home | Current Version | Previous Version | Graphics & Text | Print | Product List | Glossary Off
Versions: 1 2 3 4 5 6 7 8 9 10 11 12 13 14 15

000
FTUS43 KDDC 151720
TAFGCK
TAF
KGCK 151720Z 1518/1618 33007KT P6SM SKC
     FM152100 VRB03KT P6SM SKC
     FM160300 22005KT P6SM SKC
     FM161500 20018G28KT P6SM SKC=

USA.gov is the U.S. government's official web portal to all federal, state and local government web resources and services.